Time;durP1;ratioP1;P1;durP2;ratioP2;P2;SDS_P1;SDS_P2;PMS_P1;PMS_P2;Temp;Humidity;BMP_temperature;BMP_pressure;BME280_temperature;BME280_humidity;BME280_pressure;Samples;Min_cycle;Max_cycle;Signal;HPM_P1;HPM_P2
2023/09/12 00:02:15;;;;;;;4.00;1.33;;;;;;;22.69;88.62;100871.59;7354744;19;20257;-62
2023/09/12 00:04:42;;;;;;;5.45;2.17;;;;;;;22.72;87.50;100873.00;7353794;19;20018;-62
2023/09/12 00:07:10;;;;;;;3.63;1.60;;;;;;;22.75;86.55;100872.56;7354970;19;20023;-64
2023/09/12 00:09:37;;;;;;;8.18;1.88;;;;;;;22.75;86.31;100870.69;7356357;19;21384;-62
2023/09/12 00:12:05;;;;;;;3.42;1.35;;;;;;;22.75;85.61;100867.19;7334501;19;20089;-62
2023/09/12 00:14:32;;;;;;;3.70;1.48;;;;;;;22.73;85.58;100864.75;7355261;19;20023;-62
2023/09/12 00:17:00;;;;;;;4.50;1.67;;;;;;;22.73;85.53;100866.59;7354488;19;20111;-62
2023/09/12 00:19:27;;;;;;;4.90;1.75;;;;;;;22.71;85.12;100869.50;7353130;19;20026;-62
2023/09/12 00:21:55;;;;;;;2.75;1.17;;;;;;;22.71;85.24;100863.31;7351718;19;20011;-62
2023/09/12 00:24:23;;;;;;;3.65;1.45;;;;;;;22.70;85.59;100870.56;7355340;19;20034;-61
2023/09/12 00:26:50;;;;;;;3.08;1.60;;;;;;;22.65;85.30;100856.19;7351489;19;20015;-62
2023/09/12 00:29:17;;;;;;;6.45;1.48;;;;;;;22.61;84.92;100867.38;7355850;19;20030;-62
2023/09/12 00:31:45;;;;;;;6.97;1.58;;;;;;;22.59;85.38;100855.25;7355308;19;20494;-63
2023/09/12 00:34:17;;;;;;;5.35;1.48;;;;;;;22.61;85.79;100864.69;7350002;19;20014;-62
2023/09/12 00:36:44;;;;;;;3.75;1.40;;;;;;;22.64;85.41;100865.28;7352025;19;20633;-63
2023/09/12 00:39:11;;;;;;;3.65;1.10;;;;;;;22.65;85.36;100858.88;7334611;19;20018;-64
2023/09/12 00:41:38;;;;;;;3.72;1.42;;;;;;;22.65;85.16;100864.25;7353987;19;20025;-62
2023/09/12 00:44:06;;;;;;;6.80;1.50;;;;;;;22.63;84.98;100863.63;7358475;19;20015;-63
2023/09/12 00:46:34;;;;;;;5.13;1.55;;;;;;;22.61;84.85;100864.69;7351442;19;20020;-61
2023/09/12 00:49:04;;;;;;;4.00;1.40;;;;;;;22.58;84.60;100862.47;7349211;19;20134;-63
2023/09/12 00:51:33;;;;;;;3.33;1.30;;;;;;;22.57;84.84;100857.31;7353488;19;20027;-66
2023/09/12 00:54:01;;;;;;;6.28;1.65;;;;;;;22.57;84.86;100860.00;7358562;19;20078;-66
2023/09/12 00:56:28;;;;;;;5.50;1.27;;;;;;;22.55;84.82;100862.13;7355304;19;20352;-61
2023/09/12 00:58:56;;;;;;;3.70;1.48;;;;;;;22.55;85.19;100859.44;7361311;19;20015;-61
2023/09/12 01:01:24;;;;;;;7.53;1.80;;;;;;;22.54;85.46;100861.31;7357389;19;20025;-62
2023/09/12 01:03:51;;;;;;;3.40;1.17;;;;;;;22.52;85.26;100857.19;7362225;19;20014;-61
2023/09/12 01:06:21;;;;;;;2.60;1.27;;;;;;;22.53;84.68;100858.84;7338016;19;20010;-61
2023/09/12 01:08:49;;;;;;;3.08;1.20;;;;;;;22.53;84.37;100853.47;7360251;19;20010;-65
2023/09/12 01:11:17;;;;;;;4.18;1.40;;;;;;;22.53;84.39;100848.94;7358390;19;20018;-65
2023/09/12 01:13:47;;;;;;;4.90;1.10;;;;;;;22.53;84.23;100846.25;7360641;19;20019;-60
2023/09/12 01:16:15;;;;;;;3.97;1.30;;;;;;;22.52;83.85;100844.59;7362881;19;20026;-63
2023/09/12 01:18:42;;;;;;;3.83;1.05;;;;;;;22.52;83.87;100836.56;7360124;19;20118;-63
2023/09/12 01:21:30;;;;;;;2.53;1.15;;;;;;;22.50;83.80;100833.28;7354374;19;20042;-62
2023/09/12 01:24:20;;;;;;;2.67;1.10;;;;;;;22.49;84.03;100841.59;7355809;19;21180;-62
2023/09/12 01:27:03;;;;;;;5.10;1.10;;;;;;;22.49;83.54;100842.41;7354112;19;20034;-61
2023/09/12 01:29:31;;;;;;;3.28;1.10;;;;;;;22.46;83.37;100834.78;7360953;19;20007;-62
2023/09/12 01:32:03;;;;;;;2.70;1.10;;;;;;;22.45;83.36;100835.84;7336700;19;20014;-62
2023/09/12 01:34:30;;;;;;;5.45;1.00;;;;;;;22.45;83.41;100843.09;7358263;19;20726;-62
2023/09/12 01:36:57;;;;;;;3.13;1.00;;;;;;;22.46;83.11;100842.84;7352199;19;21672;-63
2023/09/12 01:39:25;;;;;;;3.83;1.05;;;;;;;22.47;83.15;100840.97;7364125;19;20082;-59
2023/09/12 01:41:54;;;;;;;3.95;1.80;;;;;;;22.48;83.35;100840.75;7358879;19;20356;-62
2023/09/12 01:44:25;;;;;;;3.15;1.00;;;;;;;22.51;83.18;100844.84;7361940;19;20660;-60
2023/09/12 01:46:54;;;;;;;3.78;0.93;;;;;;;22.52;82.58;100846.47;7354364;19;20050;-62
2023/09/12 01:49:25;;;;;;;6.35;0.90;;;;;;;22.50;82.42;100841.31;7355270;19;20020;-62
2023/09/12 01:51:53;;;;;;;3.75;0.95;;;;;;;22.51;82.70;100840.28;7353746;19;20022;-62
2023/09/12 01:54:22;;;;;;;3.58;0.90;;;;;;;22.50;82.54;100838.66;7357614;19;20038;-61
2023/09/12 01:56:51;;;;;;;6.78;0.88;;;;;;;22.50;81.89;100840.53;7350527;19;20010;-61
2023/09/12 01:59:19;;;;;;;4.85;1.02;;;;;;;22.47;82.00;100828.38;7361371;19;20525;-62
2023/09/12 02:01:46;;;;;;;1.83;0.68;;;;;;;22.46;82.11;100834.78;7356841;19;20095;-63
2023/09/12 02:04:13;;;;;;;5.55;1.00;;;;;;;22.43;81.90;100832.59;7360831;19;20496;-61
2023/09/12 02:06:40;;;;;;;4.63;0.95;;;;;;;22.42;82.32;100835.50;7358219;19;20010;-63
2023/09/12 02:09:07;;;;;;;4.30;0.90;;;;;;;22.39;82.50;100844.00;7360412;19;20102;-63
2023/09/12 02:11:34;;;;;;;2.88;1.00;;;;;;;22.35;82.46;100840.16;7355726;19;20022;-62
2023/09/12 02:14:02;;;;;;;4.22;1.00;;;;;;;22.30;82.54;100848.06;7359101;19;20015;-62
2023/09/12 02:16:31;;;;;;;3.53;0.90;;;;;;;22.28;82.71;100845.63;7357220;19;20017;-61
2023/09/12 02:18:59;;;;;;;4.18;0.82;;;;;;;22.25;82.50;100845.25;7354499;19;20014;-61
2023/09/12 02:21:26;;;;;;;3.45;1.20;;;;;;;22.25;82.49;100845.25;7355825;19;20018;-61
2023/09/12 02:23:53;;;;;;;3.67;0.90;;;;;;;22.24;83.69;100836.41;7360392;19;20479;-61
2023/09/12 02:26:21;;;;;;;5.10;1.00;;;;;;;22.26;83.20;100836.97;7358872;19;20021;-61
2023/09/12 02:28:48;;;;;;;2.25;0.80;;;;;;;22.25;83.14;100840.69;7359851;19;20444;-63
2023/09/12 02:31:15;;;;;;;2.35;0.80;;;;;;;22.25;82.80;100846.06;7355224;19;20014;-62
2023/09/12 02:33:42;;;;;;;5.00;1.00;;;;;;;22.24;82.88;100844.44;7337883;19;20014;-62
2023/09/12 02:36:10;;;;;;;6.38;0.98;;;;;;;22.22;82.59;100851.06;7351905;19;20479;-62
2023/09/12 02:38:37;;;;;;;2.85;0.80;;;;;;;22.20;82.64;100858.53;7353998;19;20014;-62
2023/09/12 02:41:04;;;;;;;2.35;0.90;;;;;;;22.18;82.98;100846.16;7357464;19;20022;-62
2023/09/12 02:43:32;;;;;;;4.57;0.98;;;;;;;22.20;82.41;100853.19;7349905;19;20018;-62
2023/09/12 02:45:59;;;;;;;3.47;0.93;;;;;;;22.17;82.57;100857.94;7357903;19;20014;-62
2023/09/12 02:48:26;;;;;;;3.13;0.90;;;;;;;22.15;82.79;100857.34;7357344;19;20040;-62
2023/09/12 02:50:54;;;;;;;5.47;1.35;;;;;;;22.14;82.87;100862.94;7349462;19;20018;-62
2023/09/12 02:53:21;;;;;;;3.50;1.10;;;;;;;22.13;83.53;100861.31;7356275;19;20044;-62
2023/09/12 02:55:48;;;;;;;4.18;0.90;;;;;;;22.11;83.88;100855.34;7356907;19;20018;-62
2023/09/12 02:58:15;;;;;;;3.38;0.98;;;;;;;22.07;83.06;100851.47;7337524;19;20018;-61
2023/09/12 03:00:42;;;;;;;4.05;1.30;;;;;;;22.07;83.71;100857.66;7354160;19;20025;-62
2023/09/12 03:03:09;;;;;;;3.35;0.80;;;;;;;22.10;83.86;100854.53;7353440;19;20528;-61
2023/09/12 03:05:37;;;;;;;5.75;0.90;;;;;;;22.12;83.29;100855.13;7356460;19;20106;-61
2023/09/12 03:08:04;;;;;;;4.15;0.90;;;;;;;22.11;82.87;100855.34;7352593;19;20017;-62
2023/09/12 03:10:31;;;;;;;3.08;0.82;;;;;;;22.09;83.14;100854.78;7354197;19;20048;-63
2023/09/12 03:12:58;;;;;;;4.22;1.20;;;;;;;22.09;83.18;100858.28;7356510;19;20022;-62
2023/09/12 03:15:26;;;;;;;7.78;2.00;;;;;;;22.07;84.02;100849.63;7356475;19;21387;-61
2023/09/12 03:17:53;;;;;;;7.55;2.53;;;;;;;22.05;84.89;100850.88;7355699;19;20031;-61
2023/09/12 03:20:20;;;;;;;5.40;2.42;;;;;;;22.02;86.80;100852.16;7354568;19;20015;-62
2023/09/12 03:22:47;;;;;;;5.32;1.92;;;;;;;22.01;86.99;100847.84;7353732;19;20014;-61
2023/09/12 03:25:15;;;;;;;5.13;1.58;;;;;;;22.03;86.77;100853.00;7356930;19;20022;-61
2023/09/12 03:27:42;;;;;;;4.43;2.00;;;;;;;22.03;86.98;100850.31;7354384;19;20023;-62
2023/09/12 03:30:10;;;;;;;10.00;1.88;;;;;;;22.02;87.18;100851.34;7357379;19;20026;-61
2023/09/12 03:32:37;;;;;;;3.42;1.75;;;;;;;21.99;87.73;100847.25;7357741;19;20016;-61
2023/09/12 03:35:05;;;;;;;4.88;1.70;;;;;;;21.98;87.94;100858.22;7359382;19;20051;-61
2023/09/12 03:37:32;;;;;;;4.97;1.85;;;;;;;21.97;87.91;100845.84;7354328;19;20018;-61
2023/09/12 03:39:59;;;;;;;6.45;2.10;;;;;;;21.97;88.52;100848.53;7355833;19;20027;-63
2023/09/12 03:42:26;;;;;;;4.28;1.95;;;;;;;21.97;89.04;100844.00;7348675;19;20081;-61
2023/09/12 03:45:08;;;;;;;4.72;1.58;;;;;;;21.97;88.07;100835.94;7358611;19;20036;-62
2023/09/12 03:47:35;;;;;;;3.92;1.40;;;;;;;21.97;87.93;100838.63;7356062;19;20011;-63
2023/09/12 03:50:03;;;;;;;4.40;2.00;;;;;;;21.99;88.25;100839.19;7356971;19;20015;-62
2023/09/12 03:52:30;;;;;;;5.18;1.77;;;;;;;21.97;88.01;100827.91;7356908;19;20018;-62
2023/09/12 03:55:00;;;;;;;5.03;2.15;;;;;;;21.96;87.85;100828.13;7355775;19;20023;-63
2023/09/12 03:57:27;;;;;;;4.35;1.67;;;;;;;21.93;87.84;100832.06;7341636;19;20442;-63
2023/09/12 03:59:55;;;;;;;4.05;1.95;;;;;;;21.92;89.01;100843.00;7351226;19;20775;-61
2023/09/12 04:02:22;;;;;;;4.28;1.80;;;;;;;21.92;88.91;100838.47;7352712;19;20018;-63
2023/09/12 04:04:49;;;;;;;5.03;2.05;;;;;;;21.91;88.40;100836.00;7353432;19;20041;-62
2023/09/12 04:07:16;;;;;;;5.85;1.63;;;;;;;21.91;88.33;100828.78;7353989;19;20015;-62
2023/09/12 04:09:44;;;;;;;4.75;1.80;;;;;;;21.90;88.44;100831.69;7353981;19;20015;-61
2023/09/12 04:12:11;;;;;;;4.90;1.77;;;;;;;21.92;88.75;100837.66;7352181;19;20555;-62
2023/09/12 04:14:38;;;;;;;5.75;1.75;;;;;;;21.88;88.72;100837.28;7353583;19;20039;-61
2023/09/12 04:17:05;;;;;;;4.47;2.38;;;;;;;21.83;88.38;100841.69;7354385;19;20018;-61
2023/09/12 04:19:35;;;;;;;5.47;2.00;;;;;;;21.82;88.96;100832.84;7355370;19;20027;-61
2023/09/12 04:22:04;;;;;;;5.32;2.10;;;;;;;21.83;89.34;100830.97;7354822;19;20019;-61
2023/09/12 04:24:31;;;;;;;4.38;2.33;;;;;;;21.76;88.54;100828.38;7343209;19;20544;-62
2023/09/12 04:26:58;;;;;;;5.13;2.17;;;;;;;21.69;88.85;100825.78;7342664;19;20017;-63
2023/09/12 04:29:27;;;;;;;5.50;2.60;;;;;;;21.67;89.47;100819.00;7332928;19;20019;-62
2023/09/12 04:31:59;;;;;;;6.93;2.40;;;;;;;21.67;89.49;100816.34;7342335;19;20029;-61
2023/09/12 04:34:26;;;;;;;7.75;2.35;;;;;;;21.69;89.81;100812.38;7341210;19;20018;-62
2023/09/12 04:36:53;;;;;;;2.90;1.88;;;;;;;21.69;89.37;100823.09;7360355;19;20493;-61
2023/09/12 04:39:20;;;;;;;5.90;2.55;;;;;;;21.67;89.34;100816.34;7355564;19;20031;-62
2023/09/12 04:41:48;;;;;;;4.15;1.92;;;;;;;21.67;89.51;100819.84;7358924;19;20105;-61
2023/09/12 04:44:15;;;;;;;5.80;1.95;;;;;;;21.65;89.53;100816.56;7362733;19;20412;-62
2023/09/12 04:46:42;;;;;;;6.50;1.98;;;;;;;21.63;89.24;100810.63;7359563;19;20022;-61
2023/09/12 04:49:10;;;;;;;5.82;1.95;;;;;;;21.60;88.59;100807.56;7365492;19;20017;-63
2023/09/12 04:51:37;;;;;;;4.82;2.03;;;;;;;21.62;88.79;100816.19;7361310;19;20574;-62
2023/09/12 04:54:05;;;;;;;6.63;2.22;;;;;;;21.61;88.54;100811.88;7360063;19;20650;-62
2023/09/12 04:56:32;;;;;;;3.88;1.77;;;;;;;21.58;88.25;100815.84;7358708;19;21286;-61
2023/09/12 04:58:59;;;;;;;6.72;2.13;;;;;;;21.57;88.01;100822.22;7362811;19;20014;-62
2023/09/12 05:01:26;;;;;;;4.45;1.77;;;;;;;21.54;87.70;100821.84;7357454;19;20018;-61
2023/09/12 05:03:53;;;;;;;5.32;1.80;;;;;;;21.52;87.78;100816.72;7345723;19;20038;-61
2023/09/12 05:06:20;;;;;;;5.57;1.75;;;;;;;21.50;88.06;100821.47;7359289;19;20322;-61
2023/09/12 05:08:48;;;;;;;6.35;1.98;;;;;;;21.45;87.32;100826.69;7362793;19;20569;-62
2023/09/12 05:11:15;;;;;;;3.75;1.50;;;;;;;21.42;87.40;100820.97;7362489;19;20203;-63
2023/09/12 05:13:42;;;;;;;4.45;1.73;;;;;;;21.38;87.76;100823.28;7361738;19;20050;-62
2023/09/12 05:16:09;;;;;;;3.63;1.88;;;;;;;21.39;87.13;100824.91;7359307;19;20316;-63
2023/09/12 05:18:36;;;;;;;4.28;1.92;;;;;;;21.39;88.73;100824.91;7364885;19;20073;-62
2023/09/12 05:21:04;;;;;;;4.50;1.58;;;;;;;21.39;88.27;100832.13;7356211;19;20085;-62
2023/09/12 05:23:31;;;;;;;5.65;2.15;;;;;;;21.41;87.70;100828.19;7360243;19;20014;-63
2023/09/12 05:25:58;;;;;;;4.75;1.73;;;;;;;21.41;87.42;100832.72;7360316;19;20110;-62
2023/09/12 05:28:25;;;;;;;4.80;1.80;;;;;;;21.40;87.39;100831.91;7361667;19;20106;-63
2023/09/12 05:30:53;;;;;;;5.00;1.70;;;;;;;21.42;87.56;100827.16;7339633;19;20514;-61
2023/09/12 05:33:20;;;;;;;5.03;1.75;;;;;;;21.41;87.61;100828.19;7359428;19;20019;-61
2023/09/12 05:35:48;;;;;;;6.40;2.15;;;;;;;21.40;87.41;100825.72;7359774;19;20054;-62
2023/09/12 05:38:15;;;;;;;4.10;1.85;;;;;;;21.38;88.01;100831.31;7356053;19;20048;-61
2023/09/12 05:40:42;;;;;;;8.95;1.98;;;;;;;21.38;87.78;100825.97;7357644;19;20021;-62
2023/09/12 05:43:09;;;;;;;3.53;1.85;;;;;;;21.41;87.54;100830.03;7359067;19;20384;-61
2023/09/12 05:45:36;;;;;;;5.45;1.83;;;;;;;21.41;87.14;100836.22;7359229;19;20010;-63
2023/09/12 05:48:04;;;;;;;4.22;1.70;;;;;;;21.41;87.41;100830.03;7359661;19;20019;-61
2023/09/12 05:50:31;;;;;;;3.90;1.52;;;;;;;21.41;87.49;100830.03;7356970;19;20193;-63
2023/09/12 05:52:58;;;;;;;4.03;1.67;;;;;;;21.41;86.96;100833.53;7360988;19;20014;-62
2023/09/12 05:55:25;;;;;;;7.32;1.85;;;;;;;21.40;87.41;100839.13;7339334;19;20011;-61
2023/09/12 05:57:53;;;;;;;5.32;1.50;;;;;;;21.41;88.10;100844.25;7355332;19;20014;-61
2023/09/12 06:00:20;;;;;;;3.45;1.63;;;;;;;21.41;87.46;100848.78;7358945;19;20017;-62
2023/09/12 06:02:48;;;;;;;4.05;1.25;;;;;;;21.40;87.21;100850.66;7354576;19;20018;-62
2023/09/12 06:05:16;;;;;;;7.10;1.27;;;;;;;21.40;87.00;100852.50;7354050;19;20022;-61
2023/09/12 06:07:46;;;;;;;7.22;1.73;;;;;;;21.41;87.16;100854.97;7358062;19;20688;-62
2023/09/12 06:10:14;;;;;;;3.80;1.48;;;;;;;21.44;87.08;100864.41;7357956;19;20652;-65
2023/09/12 06:12:41;;;;;;;3.72;1.30;;;;;;;21.44;86.66;100859.03;7358037;19;20014;-62
2023/09/12 06:15:08;;;;;;;4.72;1.67;;;;;;;21.45;87.15;100855.31;7359720;19;20031;-63
2023/09/12 06:17:36;;;;;;;5.13;2.00;;;;;;;21.45;87.27;100864.19;7355740;19;20093;-62
2023/09/12 06:20:06;;;;;;;4.30;1.55;;;;;;;21.46;87.41;100863.16;7359440;19;20025;-63
2023/09/12 06:22:34;;;;;;;3.85;1.48;;;;;;;21.48;86.86;100873.66;7356607;19;20006;-62
2023/09/12 06:25:01;;;;;;;3.90;1.70;;;;;;;21.50;87.32;100871.53;7335027;19;20118;-63
2023/09/12 06:27:28;;;;;;;6.35;1.63;;;;;;;21.54;86.96;100878.09;7359468;19;20015;-62
2023/09/12 06:29:55;;;;;;;7.32;2.63;;;;;;;21.55;86.94;100879.72;7359944;19;20029;-62
2023/09/12 06:32:22;;;;;;;2.63;1.65;;;;;;;21.52;86.61;100875.66;7355836;19;20596;-62
2023/09/12 06:34:50;;;;;;;2.95;1.27;;;;;;;21.51;86.95;100874.00;7359414;19;20535;-62
2023/09/12 06:37:18;;;;;;;5.82;1.70;;;;;;;21.52;86.69;100886.38;7357738;19;20618;-62
2023/09/12 06:39:49;;;;;;;5.32;1.70;;;;;;;21.55;87.18;100885.91;7358609;19;20022;-62
2023/09/12 06:42:16;;;;;;;5.32;2.30;;;;;;;21.55;86.54;100885.09;7356631;19;20017;-62
2023/09/12 06:44:44;;;;;;;3.45;1.70;;;;;;;21.52;86.29;100886.38;7359674;19;20172;-62
2023/09/12 06:47:11;;;;;;;5.10;2.38;;;;;;;21.53;86.05;100887.19;7358204;19;20018;-62
2023/09/12 06:49:39;;;;;;;4.85;1.60;;;;;;;21.57;86.31;100893.72;7336803;19;20014;-61
2023/09/12 06:52:06;;;;;;;4.20;1.77;;;;;;;21.59;86.29;100899.66;7358024;19;20080;-62
2023/09/12 06:54:33;;;;;;;9.40;2.50;;;;;;;21.60;86.79;100894.09;7356189;19;20052;-61
2023/09/12 06:57:00;;;;;;;6.32;1.80;;;;;;;21.57;86.91;100905.25;7359575;19;20019;-64
2023/09/12 06:59:28;;;;;;;5.65;2.20;;;;;;;21.58;86.86;100898.06;7356624;19;20038;-63
2023/09/12 07:01:55;;;;;;;7.78;2.33;;;;;;;21.59;87.05;100907.69;7357756;19;20018;-61
2023/09/12 07:04:22;;;;;;;7.82;2.03;;;;;;;21.56;86.41;100908.97;7353966;19;20021;-61
2023/09/12 07:06:51;;;;;;;4.90;1.95;;;;;;;21.54;86.20;100911.03;7354467;19;20018;-61
2023/09/12 07:09:19;;;;;;;6.90;1.88;;;;;;;21.54;86.23;100903.00;7327889;19;20018;-61
2023/09/12 07:11:48;;;;;;;5.57;2.05;;;;;;;21.55;86.56;100914.53;7357910;19;20011;-61
2023/09/12 07:14:15;;;;;;;4.50;2.03;;;;;;;21.55;86.33;100911.88;7355099;19;20014;-60
2023/09/12 07:16:42;;;;;;;4.93;1.58;;;;;;;21.57;87.43;100915.97;7348436;19;20704;-60
2023/09/12 07:19:10;;;;;;;4.50;1.83;;;;;;;21.62;87.88;100909.94;7352498;19;20039;-61
2023/09/12 07:21:37;;;;;;;5.78;2.00;;;;;;;21.64;87.19;100923.91;7358878;19;20073;-63
2023/09/12 07:24:05;;;;;;;5.47;1.95;;;;;;;21.64;86.88;100921.25;7342501;19;20530;-62
2023/09/12 07:26:32;;;;;;;7.95;1.80;;;;;;;21.63;87.34;100923.13;7360452;19;20490;-62
2023/09/12 07:29:02;;;;;;;6.18;1.88;;;;;;;21.63;86.94;100917.78;7361381;19;20476;-62
2023/09/12 07:31:29;;;;;;;5.55;1.85;;;;;;;21.63;86.76;100919.63;7352910;19;21505;-62
2023/09/12 07:33:58;;;;;;;4.00;1.83;;;;;;;21.63;86.72;100917.78;7358569;19;20042;-62
2023/09/12 07:36:25;;;;;;;5.18;2.38;;;;;;;21.64;87.18;100927.41;7353551;19;20022;-61
2023/09/12 07:38:53;;;;;;;6.30;2.45;;;;;;;21.66;88.20;100922.66;7358167;19;20034;-61
2023/09/12 07:41:20;;;;;;;4.13;1.77;;;;;;;21.68;87.80;100925.13;7352153;19;20292;-61
2023/09/12 07:43:47;;;;;;;4.57;1.92;;;;;;;21.71;87.17;100933.53;7356337;19;20134;-63
2023/09/12 07:46:15;;;;;;;5.10;2.13;;;;;;;21.69;87.22;100935.59;7357384;19;20026;-62
2023/09/12 07:48:42;;;;;;;4.25;2.00;;;;;;;21.69;87.57;100937.47;7357113;19;20023;-63
2023/09/12 07:51:15;;;;;;;5.22;2.70;;;;;;;21.68;87.70;100933.16;7351416;19;20022;-62
2023/09/12 07:53:42;;;;;;;;;;;;;;;21.67;88.00;100935.03;7357936;19;20132;-61
2023/09/12 07:56:11;;;;;;;8.48;3.28;;;;;;;21.68;88.41;100935.84;7356121;19;20091;-62
2023/09/12 07:58:38;;;;;;;6.32;2.22;;;;;;;21.69;88.79;100930.25;7339071;19;20019;-61
2023/09/12 08:01:07;;;;;;;5.28;3.13;;;;;;;21.71;88.26;100933.53;7355599;19;21690;-61
2023/09/12 08:03:36;;;;;;;8.43;2.90;;;;;;;21.70;88.22;100934.56;7353423;19;20010;-61
2023/09/12 08:06:04;;;;;;;7.75;2.67;;;;;;;21.68;88.51;100933.16;7345981;19;20022;-62
2023/09/12 08:08:32;;;;;;;7.15;1.85;;;;;;;21.65;87.91;100942.47;7353697;19;20438;-61
2023/09/12 08:10:59;;;;;;;7.47;2.67;;;;;;;21.67;88.63;100932.34;7357986;19;20605;-62
2023/09/12 08:13:29;;;;;;;6.32;2.28;;;;;;;21.69;88.19;100937.47;7353834;19;20039;-62
2023/09/12 08:15:57;;;;;;;4.80;2.33;;;;;;;21.71;88.29;100935.38;7353118;19;20737;-62
2023/09/12 08:18:28;;;;;;;5.82;2.42;;;;;;;21.75;89.23;100936.56;7353845;19;20030;-61
2023/09/12 08:20:56;;;;;;;6.17;2.60;;;;;;;21.75;88.42;100948.13;7355505;19;20974;-62
2023/09/12 08:23:24;;;;;;;4.55;2.17;;;;;;;21.76;88.52;100941.72;7357918;19;20274;-62
2023/09/12 08:25:51;;;;;;;5.22;2.50;;;;;;;21.79;88.00;100935.06;7358588;19;20014;-61
2023/09/12 08:28:18;;;;;;;4.90;2.05;;;;;;;21.81;87.86;100950.94;7354936;19;20014;-62
2023/09/12 08:30:46;;;;;;;6.75;2.20;;;;;;;21.84;87.51;100945.94;7353683;19;20014;-61
2023/09/12 08:33:13;;;;;;;6.93;2.30;;;;;;;21.85;87.74;100939.56;7356890;19;20029;-63
2023/09/12 08:35:41;;;;;;;5.88;2.55;;;;;;;21.90;87.24;100949.59;7355974;19;20022;-61
2023/09/12 08:38:09;;;;;;;8.63;2.67;;;;;;;21.93;87.76;100944.63;7354433;19;20022;-62
2023/09/12 08:40:36;;;;;;;9.40;3.08;;;;;;;21.93;87.30;100944.63;7352854;19;20055;-62
2023/09/12 08:43:04;;;;;;;6.35;3.00;;;;;;;21.95;86.90;100939.88;7350411;19;20015;-61
2023/09/12 08:45:31;;;;;;;15.88;3.38;;;;;;;21.95;86.09;100947.09;7356588;19;20010;-61
2023/09/12 08:48:01;;;;;;;14.45;2.97;;;;;;;21.96;86.26;100944.19;7355560;19;20017;-61
2023/09/12 08:50:32;;;;;;;16.10;2.67;;;;;;;21.96;86.46;100944.19;7353984;19;20479;-61
2023/09/12 08:53:00;;;;;;;7.18;3.10;;;;;;;22.00;86.46;100947.25;7355541;19;20571;-61
2023/09/12 08:55:35;;;;;;;7.80;3.05;;;;;;;22.04;86.57;100945.78;7354974;19;21304;-61
2023/09/12 08:58:05;;;;;;;10.48;3.17;;;;;;;22.04;86.54;100954.63;7353499;19;20051;-62
2023/09/12 09:00:35;;;;;;;6.57;3.05;;;;;;;22.06;86.39;100949.84;7355038;19;20102;-61
2023/09/12 09:03:04;;;;;;;7.97;3.00;;;;;;;22.10;85.90;100955.56;7352907;19;20078;-61
2023/09/12 09:05:33;;;;;;;8.50;2.88;;;;;;;;;;7354027;19;20015;-62
2023/09/12 09:08:03;;;;;;;8.30;2.97;;;;;;;22.15;85.49;100951.16;7355856;19;20055;-62
2023/09/12 09:10:32;;;;;;;14.05;3.25;;;;;;;22.21;86.73;100946.75;7356068;19;20011;-61
2023/09/12 09:13:17;;;;;;;8.95;3.38;;;;;;;22.23;85.48;100951.91;7355040;19;20022;-61
2023/09/12 09:15:45;;;;;;;9.48;2.20;;;;;;;22.23;85.42;100944.69;7352181;19;20047;-62
2023/09/12 09:18:13;;;;;;;10.48;3.33;;;;;;;22.26;85.37;100948.75;7360134;19;20023;-62
2023/09/12 09:20:40;;;;;;;8.25;2.80;;;;;;;22.31;84.88;100951.59;7356455;19;20044;-61
2023/09/12 09:23:10;;;;;;;8.45;2.72;;;;;;;22.34;84.84;100948.47;7361111;19;20419;-61
2023/09/12 09:25:43;;;;;;;7.82;3.50;;;;;;;22.37;84.43;100948.00;7359357;19;20015;-61
2023/09/12 09:28:19;;;;;;;7.85;3.38;;;;;;;22.39;83.77;100940.56;7360201;19;20640;-62
2023/09/12 09:30:48;;;;;;;7.55;2.95;;;;;;;22.40;84.34;100944.88;7360555;19;20010;-61
2023/09/12 09:33:15;;;;;;;10.95;3.03;;;;;;;22.42;84.02;100937.41;7358485;19;20018;-61
2023/09/12 09:35:46;;;;;;;6.93;3.17;;;;;;;22.47;84.18;100941.06;7343133;19;20018;-62
2023/09/12 09:38:16;;;;;;;6.45;2.45;;;;;;;22.42;82.28;100932.88;7354967;19;20034;-62
2023/09/12 09:40:44;;;;;;;5.20;2.00;;;;;;;22.45;81.92;100935.09;7362069;19;20018;-61
2023/09/12 09:43:13;;;;;;;4.63;2.00;;;;;;;22.46;81.84;100931.38;7355525;19;20015;-61
2023/09/12 09:45:45;;;;;;;5.82;2.67;;;;;;;22.50;82.54;100937.09;7357530;19;20025;-62
2023/09/12 09:48:21;;;;;;;;;;;;;;;22.54;81.91;100936.41;7356579;19;20011;-62
2023/09/12 09:50:48;;;;;;;4.65;2.08;;;;;;;22.59;82.25;100938.41;7355034;19;19981;-62
2023/09/12 09:53:15;;;;;;;7.25;2.13;;;;;;;22.62;82.32;100935.25;7356730;19;20010;-62
2023/09/12 09:55:43;;;;;;;8.35;1.92;;;;;;;22.64;81.93;100935.03;7359557;19;20013;-62
2023/09/12 09:58:16;;;;;;;4.45;1.50;;;;;;;22.71;80.63;100936.59;7356630;19;20022;-61
2023/09/12 10:00:44;;;;;;;7.32;1.70;;;;;;;22.76;79.81;100927.84;7339890;19;20593;-61
2023/09/12 10:03:16;;;;;;;4.90;1.42;;;;;;;22.80;80.24;100932.56;7357814;19;20048;-61
2023/09/12 10:05:45;;;;;;;6.22;1.70;;;;;;;22.83;79.46;100933.94;7357142;19;20011;-61
2023/09/12 10:08:17;;;;;;;6.68;1.52;;;;;;;22.85;79.34;100934.53;7350997;19;20036;-63
2023/09/12 10:10:45;;;;;;;5.10;1.55;;;;;;;22.88;78.76;100934.88;7363532;19;20430;-61
2023/09/12 10:13:14;;;;;;;5.78;1.48;;;;;;;22.93;77.97;100934.19;7356418;19;20026;-62
2023/09/12 10:15:44;;;;;;;7.65;1.30;;;;;;;22.97;77.49;100938.88;7357044;19;20010;-61
2023/09/12 10:18:18;;;;;;;3.92;1.10;;;;;;;23.00;77.62;100938.41;7359127;19;20163;-61
2023/09/12 10:21:04;;;;;;;6.78;1.20;;;;;;;23.05;77.29;100934.22;7356641;19;20072;-61
2023/09/12 10:23:41;;;;;;;5.45;1.65;;;;;;;23.09;77.79;100940.75;7357261;19;20014;-61
2023/09/12 10:26:13;;;;;;;5.75;1.48;;;;;;;23.14;77.48;100940.88;7361332;19;20023;-61
2023/09/12 10:28:42;;;;;;;5.75;1.02;;;;;;;23.20;78.71;100934.56;7355464;19;20015;-62
2023/09/12 10:31:12;;;;;;;4.03;1.08;;;;;;;23.25;78.16;100938.19;7354890;19;20486;-60
2023/09/12 10:33:40;;;;;;;3.83;0.93;;;;;;;23.29;77.20;100928.63;7333466;19;20010;-61
2023/09/12 10:36:09;;;;;;;3.00;0.90;;;;;;;23.29;75.52;100925.94;7353088;19;20034;-61
2023/09/12 10:38:47;;;;;;;4.30;1.23;;;;;;;23.33;75.54;100932.47;7328875;19;20010;-61
2023/09/12 10:41:16;;;;;;;6.63;0.80;;;;;;;23.34;74.21;100931.41;7358198;19;20015;-61
2023/09/12 10:46:23;;;;;;;2.78;0.80;;;;;;;23.46;75.27;100930.63;7353524;19;20550;-61
2023/09/12 10:48:51;;;;;;;2.35;0.70;;;;;;;23.51;74.95;100934.25;7358900;19;20018;-61
2023/09/12 10:51:19;;;;;;;5.38;1.00;;;;;;;23.52;74.36;100937.75;7355722;19;20689;-61
2023/09/12 10:53:49;;;;;;;2.95;0.75;;;;;;;23.53;72.86;100925.94;7361673;19;20023;-62
2023/09/12 10:56:19;;;;;;;3.03;0.52;;;;;;;23.52;72.61;100929.69;7353916;19;20097;-61
2023/09/12 10:59:04;;;;;;;3.05;0.60;;;;;;;23.45;72.75;100929.81;7356250;19;20014;-61
2023/09/12 11:01:32;;;;;;;4.43;1.25;;;;;;;23.49;74.64;100928.28;7359840;19;20018;-61
2023/09/12 11:04:19;;;;;;;2.45;0.60;;;;;;;23.50;73.23;100927.25;7356204;19;20013;-61
2023/09/12 11:06:47;;;;;;;4.00;0.80;;;;;;;23.53;72.36;100923.25;7357466;19;20836;-62
2023/09/12 11:09:16;;;;;;;3.28;0.73;;;;;;;23.54;72.52;100925.72;7359504;19;20134;-60
2023/09/12 11:11:47;;;;;;;4.60;0.60;;;;;;;23.57;72.87;100924.44;7357780;19;20014;-62
2023/09/12 11:14:15;;;;;;;7.40;1.05;;;;;;;23.55;72.93;100918.47;7359602;19;20011;-61
2023/09/12 11:16:44;;;;;;;5.18;0.90;;;;;;;23.55;72.95;100932.72;7355235;19;20090;-62
2023/09/12 11:19:23;;;;;;;4.65;1.00;;;;;;;23.57;73.46;100927.91;7356963;19;20711;-62
2023/09/12 11:21:52;;;;;;;3.80;0.88;;;;;;;23.57;73.18;100925.22;7358327;19;20090;-62
2023/09/12 11:24:20;;;;;;;5.47;0.70;;;;;;;23.59;73.64;100925.00;7354805;19;20018;-62
2023/09/12 11:27:01;;;;;;;3.35;0.55;;;;;;;23.62;72.77;100913.78;7354206;19;20059;-62
2023/09/12 11:29:37;;;;;;;2.85;0.65;;;;;;;23.61;72.90;100909.47;7358138;19;20010;-62
2023/09/12 11:32:06;;;;;;;3.47;0.80;;;;;;;23.60;72.75;100911.34;7357705;19;20031;-61
2023/09/12 11:34:40;;;;;;;2.83;0.80;;;;;;;23.64;72.67;100908.97;7358786;19;20015;-61
2023/09/12 11:37:08;;;;;;;1.50;0.70;;;;;;;23.68;72.86;100908.25;7354600;19;20033;-63